Berge Hallasan — 3FNV2 — position and weather

sailwx.info

Track history (hours):
 
Tides and Currents Weather Stations Pressure Air Temp Water Temp Dewpoint Dewpoint Depression Visibility Wind Speed Wind Dir Waves Ship Positions

Berge Hallasan

Last reported at 2017-Sep-28 09:19 UTC. Time now 2017-Oct-18 16:59 UTC.
Position N 46°12' W 125°33'.
Warning: this ship's position is 20 days out of date.

Length 183 m; draft 8.9 m.

Type: Cargo ship. MMSI: 374922000.

Date/timePositionNaut miles runAvg speedWind from/ knotsBaromVisibWave heightAir tempDewpointWater temp
2017-Sep-28 09:19N 46°12' W 125°33'412.5
2017-Sep-28 09:00N 46°12' W 125°27'612.4
2017-Sep-28 08:30N 46°12' W 125°18'612.4
2017-Sep-28 08:00N 46°12' W 125°09'612.2
2017-Sep-28 07:29N 46°12' W 125°00'612.1
2017-Sep-28 07:00N 46°12' W 124°52'611.6
2017-Sep-28 06:30N 46°12' W 124°43'611.8
2017-Sep-28 06:00N 46°11' W 124°35'612.1
2017-Sep-28 05:30N 46°10' W 124°26'612.5
2017-Sep-28 05:00N 46°09' W 124°17'4 7.7
2017-Sep-28 04:27N 46°11' W 124°12'511.6
2017-Sep-28 04:00N 46°15' W 124°06'611.6
2017-Sep-28 03:31N 46°13' W 123°58'510.0
2017-Sep-28 03:00N 46°12' W 123°51'4 8.3
2017-Sep-28 02:29N 46°13' W 123°45'611.8
2017-Sep-28 02:01N 46°16' W 123°38'611.7
2017-Sep-28 01:31N 46°16' W 123°30'5 9.7
2017-Sep-28 01:01N 46°12' W 123°26'5 9.3
2017-Sep-28 00:30N 46°09' W 123°22'612.4
2017-Sep-28 00:00N 46°10' W 123°13'612.0
2017-Sep-27 23:31N 46°10' W 123°04'611.5
2017-Sep-27 23:01N 46°06' W 122°58'1 1.2
2017-Sep-27 22:29N 46°06' W 122°57'0 0.0
2017-Sep-27 21:59N 46°06' W 122°57'0 0.0
2017-Sep-27 21:29N 46°06' W 122°57'0 0.0
2017-Sep-27 20:59N 46°06' W 122°57'0 0.0
2017-Sep-27 20:26N 46°06' W 122°57'0 0.0
2017-Sep-27 19:59N 46°06' W 122°57'0 0.0
2017-Sep-27 19:29N 46°06' W 122°57'0 0.0
2017-Sep-27 18:44N 46°06' W 122°57'0 0.0
2017-Sep-27 18:29N 46°06' W 122°57'0 0.0
2017-Sep-27 17:59N 46°06' W 122°57'0 0.0
2017-Sep-27 17:26N 46°06' W 122°57'0 0.0
2017-Sep-27 16:59N 46°06' W 122°57'0 0.0
2017-Sep-27 16:29N 46°06' W 122°57'0 0.0
2017-Sep-27 15:44N 46°06' W 122°57'0 0.0
2017-Sep-27 15:29N 46°06' W 122°57'0 0.0
2017-Sep-27 14:53N 46°06' W 122°57'0 0.0
2017-Sep-27 14:26N 46°06' W 122°57'0 0.0
2017-Sep-27 13:59N 46°06' W 122°57'0 0.0
2017-Sep-27 13:29N 46°06' W 122°57'0 0.0
2017-Sep-27 12:59N 46°06' W 122°57'0 0.0
2017-Sep-27 12:29N 46°06' W 122°57'0 0.0
2017-Sep-27 11:59N 46°06' W 122°57'0 0.0
2017-Sep-27 11:26N 46°06' W 122°57'0 0.0
2017-Sep-27 10:59N 46°06' W 122°57'0 0.0
2017-Sep-27 10:29N 46°06' W 122°57'0 0.0
2017-Sep-27 09:47N 46°06' W 122°57'0 0.0
2017-Sep-27 09:29N 46°06' W 122°57'0 0.0
2017-Sep-27 08:59N 46°06' W 122°57'0 0.0
2017-Sep-27 08:29N 46°06' W 122°57'0 0.0
2017-Sep-27 07:59N 46°06' W 122°57'0 0.0
2017-Sep-27 07:29N 46°06' W 122°57'0 0.0
2017-Sep-27 06:41N 46°06' W 122°57'0 0.0
2017-Sep-27 06:29N 46°06' W 122°57'0 0.0
2017-Sep-27 05:59N 46°06' W 122°57'0 0.0
2017-Sep-27 05:26N 46°06' W 122°57'0 0.0
2017-Sep-27 04:56N 46°06' W 122°57'0 0.0
2017-Sep-27 04:26N 46°06' W 122°57'0 0.0
2017-Sep-27 03:50N 46°06' W 122°57'0 0.0
2017-Sep-27 03:26N 46°06' W 122°57'0 0.0
2017-Sep-27 02:56N 46°06' W 122°57'0 0.0
2017-Sep-27 02:29N 46°06' W 122°57'0 0.0
2017-Sep-27 01:59N 46°06' W 122°57'0 0.0
2017-Sep-27 01:29N 46°06' W 122°57'0 0.0
2017-Sep-27 00:47N 46°06' W 122°57'0 0.0
2017-Sep-27 00:20N 46°06' W 122°57'0 0.0
2017-Sep-26 23:53N 46°06' W 122°57'0 0.0
2017-Sep-26 23:26N 46°06' W 122°57'0 0.0
2017-Sep-26 22:47N 46°06' W 122°57'0 0.0
2017-Sep-26 22:29N 46°06' W 122°57'0 0.0
2017-Sep-26 21:53N 46°06' W 122°57'0 0.0
2017-Sep-26 21:29N 46°06' W 122°57'0 0.0
2017-Sep-26 20:59N 46°06' W 122°57'0 0.0
2017-Sep-26 20:29N 46°06' W 122°57'0 0.0
2017-Sep-26 19:35N 46°06' W 122°57'0 0.0
2017-Sep-26 19:29N 46°06' W 122°57'0 0.0
2017-Sep-26 18:56N 46°06' W 122°57'0 0.0
2017-Sep-26 18:26N 46°06' W 122°57'0 0.0
2017-Sep-26 17:59N 46°06' W 122°57'0 0.0
2017-Sep-26 17:29N 46°06' W 122°57'0 0.0
2017-Sep-26 16:59N 46°06' W 122°57'0 0.0
2017-Sep-26 16:29N 46°06' W 122°57'0 0.0
2017-Sep-26 15:59N 46°06' W 122°57'0 0.0
2017-Sep-26 15:26N 46°06' W 122°57'0 0.0
2017-Sep-26 14:56N 46°06' W 122°57'0 0.0
2017-Sep-26 14:29N 46°06' W 122°57'0 0.0
2017-Sep-26 13:44N 46°06' W 122°57'0 0.0
2017-Sep-26 13:29N 46°06' W 122°57'0 0.0
2017-Sep-26 12:56N 46°06' W 122°57'0 0.0
2017-Sep-26 12:29N 46°06' W 122°57'0 0.0
2017-Sep-26 11:59N 46°06' W 122°57'0 0.0
2017-Sep-26 11:29N 46°06' W 122°57'0 0.0
2017-Sep-26 10:59N 46°06' W 122°57'0 0.0
2017-Sep-26 10:29N 46°06' W 122°57'0 0.0
2017-Sep-26 09:53N 46°06' W 122°57'0 0.0
2017-Sep-26 09:29N 46°06' W 122°57'0 0.0
2017-Sep-26 08:59N 46°06' W 122°57'0 0.0
2017-Sep-26 08:29N 46°06' W 122°57'0 0.0
2017-Sep-26 07:59N 46°06' W 122°57'0 0.0
2017-Sep-26 07:23N 46°06' W 122°57'0 0.0
2017-Sep-26 06:59N 46°06' W 122°57'0 0.0
2017-Sep-26 06:29N 46°06' W 122°57'0 0.0
2017-Sep-26 05:56N 46°06' W 122°57'0 0.0
2017-Sep-26 05:23N 46°06' W 122°57'0 0.0
2017-Sep-26 04:08N 46°06' W 122°57'0 0.0
2017-Sep-26 03:59N 46°06' W 122°57'0 0.0
2017-Sep-26 03:29N 46°06' W 122°57'0 0.0
2017-Sep-26 02:59N 46°06' W 122°57'0 0.0
2017-Sep-26 02:26N 46°06' W 122°57'0 0.0
2017-Sep-26 01:56N 46°06' W 122°57'0 0.0
2017-Sep-26 01:26N 46°06' W 122°57'0 0.0
2017-Sep-26 00:53N 46°06' W 122°57'0 0.0
2017-Sep-26 00:29N 46°06' W 122°57'0 0.0
2017-Sep-25 23:59N 46°06' W 122°57'0 0.0
2017-Sep-25 23:05N 46°06' W 122°57'0 0.0
2017-Sep-25 22:59N 46°06' W 122°57'0 0.0
2017-Sep-25 22:29N 46°06' W 122°57'0 0.0
2017-Sep-25 21:59N 46°06' W 122°57'0 0.0
2017-Sep-25 21:29N 46°06' W 122°57'0 0.0
2017-Sep-25 20:50N 46°06' W 122°57'0 0.0
2017-Sep-25 20:29N 46°06' W 122°57'0 0.0
2017-Sep-25 19:50N 46°06' W 122°57'0 0.0
2017-Sep-25 19:29N 46°06' W 122°57'0 0.0
2017-Sep-25 18:53N 46°06' W 122°57'0 0.0
2017-Sep-25 18:23N 46°06' W 122°57'0 0.0
2017-Sep-25 17:56N 46°06' W 122°57'0 0.0
2017-Sep-25 17:29N 46°06' W 122°57'0 0.0
2017-Sep-25 16:56N 46°06' W 122°57'0 0.0
2017-Sep-25 16:26N 46°06' W 122°57'0 0.0
2017-Sep-25 15:56N 46°06' W 122°57'0 0.0
2017-Sep-25 15:29N 46°06' W 122°57'0 0.0
2017-Sep-25 14:56N 46°06' W 122°57'0 0.0
2017-Sep-25 14:20N 46°06' W 122°57'0 0.0
2017-Sep-25 13:59N 46°06' W 122°57'0 0.0
2017-Sep-25 13:23N 46°06' W 122°57'0 0.0
2017-Sep-25 12:59N 46°06' W 122°57'0 0.0
2017-Sep-25 12:23N 46°06' W 122°57'0 0.0
2017-Sep-25 11:59N 46°06' W 122°57'0 0.0
2017-Sep-25 11:29N 46°06' W 122°57'0 0.0
2017-Sep-25 10:59N 46°06' W 122°57'0 0.0
2017-Sep-25 10:02N 46°06' W 122°57'0 0.0
2017-Sep-25 09:53N 46°06' W 122°57'0 0.0
2017-Sep-25 09:26N 46°06' W 122°57'0 0.0
2017-Sep-25 08:56N 46°06' W 122°57'0 0.0
2017-Sep-25 08:14N 46°06' W 122°57'0 0.0
2017-Sep-25 07:59N 46°06' W 122°57'0 0.0
2017-Sep-25 07:29N 46°06' W 122°57'0 0.0
2017-Sep-25 06:59N 46°06' W 122°57'0 0.0
2017-Sep-25 06:29N 46°06' W 122°57'0 0.0
2017-Sep-25 05:59N 46°06' W 122°57'0 0.0
2017-Sep-25 05:26N 46°06' W 122°57'0 0.0
2017-Sep-25 04:59N 46°06' W 122°57'0 0.0
2017-Sep-25 04:29N 46°06' W 122°57'0 0.0
2017-Sep-25 03:38N 46°06' W 122°57'0 0.0
2017-Sep-25 03:26N 46°06' W 122°57'0 0.0
2017-Sep-25 01:59N 46°06' W 122°57'0 0.0
2017-Sep-25 01:26N 46°06' W 122°57'0 0.0
2017-Sep-25 00:59N 46°06' W 122°57'0 0.0
2017-Sep-25 00:29N 46°06' W 122°57'0 0.0
2017-Sep-24 23:56N 46°06' W 122°57'0 0.0
2017-Sep-24 23:26N 46°06' W 122°57'0 0.0
2017-Sep-24 22:59N 46°06' W 122°57'0 0.0
2017-Sep-24 22:26N 46°06' W 122°57'0 0.0
2017-Sep-24 21:59N 46°06' W 122°57'0 0.0
2017-Sep-24 21:29N 46°06' W 122°57'0 0.0
2017-Sep-24 20:56N 46°06' W 122°57'0 0.0
2017-Sep-24 20:29N 46°06' W 122°57'0 0.0
2017-Sep-24 19:56N 46°06' W 122°57'0 0.0
2017-Sep-24 19:23N 46°06' W 122°57'0 0.0
2017-Sep-24 18:59N 46°06' W 122°57'0 0.0
2017-Sep-24 18:29N 46°06' W 122°57'0 0.0
2017-Sep-24 17:59N 46°06' W 122°57'0 0.0
2017-Sep-24 17:29N 46°06' W 122°57'0 0.0
2017-Sep-24 16:59N 46°06' W 122°57'0 0.0
2017-Sep-24 16:14N 46°06' W 122°57'0 0.0
2017-Sep-24 15:59N 46°06' W 122°57'0 0.0
2017-Sep-24 15:29N 46°06' W 122°57'0 0.0
2017-Sep-24 14:59N 46°06' W 122°57'0 0.0
2017-Sep-24 14:29N 46°06' W 122°57'0 0.0
2017-Sep-24 13:59N 46°06' W 122°57'0 0.0
2017-Sep-24 13:26N 46°06' W 122°57'0 0.0
2017-Sep-24 12:50N 46°06' W 122°57'0 0.0
2017-Sep-24 12:17N 46°06' W 122°57'0 0.0
2017-Sep-24 11:59N 46°06' W 122°57'0 0.0
2017-Sep-24 11:29N 46°06' W 122°57'0 0.0
2017-Sep-24 10:59N 46°06' W 122°57'0 0.0
2017-Sep-24 10:29N 46°06' W 122°57'0 0.0
2017-Sep-24 09:59N 46°06' W 122°57'0 0.0
2017-Sep-24 09:26N 46°06' W 122°57'0 0.0
2017-Sep-24 08:59N 46°06' W 122°57'0 0.0
2017-Sep-24 08:29N 46°06' W 122°57'0 0.0
2017-Sep-24 07:56N 46°06' W 122°57'0 0.0
2017-Sep-24 07:29N 46°06' W 122°57'0 0.0
2017-Sep-24 06:59N 46°06' W 122°57'0 0.0
2017-Sep-24 06:29N 46°06' W 122°57'0 0.0
2017-Sep-24 05:59N 46°06' W 122°57'0 0.0
2017-Sep-24 05:29N 46°06' W 122°57'0 0.0
2017-Sep-24 04:56N 46°06' W 122°57'0 0.0
2017-Sep-24 04:29N 46°06' W 122°57'0 0.0
2017-Sep-24 03:59N 46°06' W 122°57'0 0.0
2017-Sep-24 03:29N 46°06' W 122°57'0 0.0
2017-Sep-24 02:59N 46°06' W 122°57'0 0.0
2017-Sep-24 02:29N 46°06' W 122°57'0 0.0
2017-Sep-24 01:47N 46°06' W 122°57'0 0.0
2017-Sep-24 01:29N 46°06' W 122°57'0 0.0
2017-Sep-24 00:59N 46°06' W 122°57'0 0.0
2017-Sep-24 00:29N 46°06' W 122°57'0 0.0
2017-Sep-23 23:59N 46°06' W 122°57'0 0.0
2017-Sep-23 23:29N 46°06' W 122°57'0 0.0
2017-Sep-23 22:56N 46°06' W 122°57'0 0.0
2017-Sep-23 22:26N 46°06' W 122°57'0 0.0
2017-Sep-23 21:56N 46°06' W 122°57'0 0.0
2017-Sep-23 21:29N 46°06' W 122°57'0 0.0
2017-Sep-23 20:29N 46°06' W 122°57'0 0.0
2017-Sep-23 19:59N 46°06' W 122°57'0 0.0
2017-Sep-22 01:59N 46°06' W 122°57'0 0.0
2017-Sep-22 01:29N 46°06' W 122°57'0 0.0
2017-Sep-22 00:56N 46°06' W 122°57'0 0.0
2017-Sep-22 00:29N 46°06' W 122°57'0 0.0
2017-Sep-21 23:53N 46°06' W 122°57'0 0.0
2017-Sep-21 23:29N 46°06' W 122°57'0 0.0
2017-Sep-21 22:59N 46°06' W 122°57'0 0.0
2017-Sep-21 22:29N 46°06' W 122°57'0 0.0
2017-Sep-21 21:59N 46°06' W 122°57'0 0.0
2017-Sep-21 21:17N 46°06' W 122°57'0 0.0
2017-Sep-21 20:59N 46°06' W 122°57'0 0.0
2017-Sep-21 20:29N 46°06' W 122°57'0 0.0
2017-Sep-21 19:59N 46°06' W 122°57'0 0.0
2017-Sep-21 19:26N 46°06' W 122°57'0 0.0
2017-Sep-21 17:59N 46°06' W 122°57'0 0.0
2017-Sep-21 17:26N 46°06' W 122°57'0 0.0
2017-Sep-21 16:59N 46°06' W 122°57'0 0.0
2017-Sep-21 16:29N 46°06' W 122°57'0 0.0
2017-Sep-21 15:56N 46°06' W 122°57'0 0.0
2017-Sep-21 15:26N 46°06' W 122°57'0 0.0
2017-Sep-21 14:59N 46°06' W 122°57'0 0.0
2017-Sep-21 14:29N 46°06' W 122°57'0 0.0
2017-Sep-21 13:59N 46°06' W 122°57'0 0.0
2017-Sep-21 13:26N 46°06' W 122°57'0 0.0
2017-Sep-21 12:59N 46°06' W 122°57'0 0.0
2017-Sep-21 12:26N 46°06' W 122°57'0 0.0
2017-Sep-21 11:56N 46°06' W 122°57'0 0.0
2017-Sep-21 11:29N 46°06' W 122°57'0 0.0
2017-Sep-21 10:59N 46°06' W 122°57'0 0.0
2017-Sep-21 10:20N 46°06' W 122°57'0 0.0
2017-Sep-21 09:59N 46°06' W 122°57'0 0.0
2017-Sep-21 09:29N 46°06' W 122°57'0 0.0
2017-Sep-21 08:56N 46°06' W 122°57'0 0.0
2017-Sep-21 08:29N 46°06' W 122°57'0 0.0
2017-Sep-21 07:56N 46°06' W 122°57'0 0.0
2017-Sep-21 07:29N 46°06' W 122°57'0 0.0
2017-Sep-21 06:59N 46°06' W 122°57'0 0.0
2017-Sep-21 06:26N 46°06' W 122°57'0 0.0
2017-Sep-21 05:59N 46°06' W 122°57'0 0.0
2017-Sep-21 05:29N 46°06' W 122°57'0 0.0
2017-Sep-21 04:56N 46°06' W 122°57'0 0.0
2017-Sep-21 04:29N 46°06' W 122°57'0 0.0
2017-Sep-21 03:56N 46°06' W 122°57'0 0.0
2017-Sep-21 03:26N 46°06' W 122°57'0 0.0
2017-Sep-21 02:59N 46°06' W 122°57'0 0.0
2017-Sep-21 01:32N 46°06' W 122°57'0 0.0
2017-Sep-21 01:29N 46°06' W 122°57'0 0.0
2017-Sep-21 00:59N 46°06' W 122°57'0 0.0
2017-Sep-21 00:29N 46°06' W 122°57'0 0.0
2017-Sep-20 23:59N 46°06' W 122°57'0 0.0
2017-Sep-20 23:26N 46°06' W 122°57'0 0.0
2017-Sep-20 22:59N 46°06' W 122°57'0 0.0
2017-Sep-20 22:29N 46°06' W 122°57'0 0.0
2017-Sep-20 21:56N 46°06' W 122°57'0 0.0
2017-Sep-20 21:26N 46°06' W 122°57'0 0.0
2017-Sep-20 20:59N 46°06' W 122°57'0 0.0
2017-Sep-20 20:26N 46°06' W 122°57'0 0.0
2017-Sep-20 19:59N 46°06' W 122°57'0 0.0
2017-Sep-20 19:29N 46°06' W 122°57'0 0.0
2017-Sep-20 18:56N 46°06' W 122°57'0 0.0
2017-Sep-20 18:29N 46°06' W 122°57'0 0.0
2017-Sep-20 17:59N 46°06' W 122°57'0 0.0
2017-Sep-20 17:29N 46°06' W 122°57'0 0.0
2017-Sep-20 16:59N 46°06' W 122°57'0 0.0
2017-Sep-20 16:29N 46°06' W 122°57'0 0.0
2017-Sep-20 15:59N 46°06' W 122°57'0 0.0
2017-Sep-20 15:26N 46°06' W 122°57'0 0.0
2017-Sep-20 14:59N 46°06' W 122°57'0 0.0
2017-Sep-20 13:56N 46°06' W 122°57'0 0.0
2017-Sep-20 13:29N 46°06' W 122°57'0 0.0
2017-Sep-20 12:53N 46°06' W 122°57'0 0.0
2017-Sep-20 12:29N 46°06' W 122°57'0 0.0
2017-Sep-20 11:59N 46°06' W 122°57'0 0.0
2017-Sep-20 11:29N 46°06' W 122°57'0 0.0
2017-Sep-20 10:59N 46°06' W 122°57'0 0.0
2017-Sep-20 10:29N 46°06' W 122°57'0 0.0
2017-Sep-20 09:59N 46°06' W 122°57'0 0.0
2017-Sep-20 09:29N 46°06' W 122°57'0 0.0
2017-Sep-20 08:59N 46°06' W 122°57'0 0.0
2017-Sep-20 08:29N 46°06' W 122°57'0 0.0
2017-Sep-20 07:53N 46°06' W 122°57'0 0.0
2017-Sep-20 07:29N 46°06' W 122°57'0 0.0
2017-Sep-20 06:56N 46°06' W 122°57'0 0.0
2017-Sep-20 06:29N 46°06' W 122°57'0 0.0
2017-Sep-20 05:59N 46°06' W 122°57'0 0.0
2017-Sep-20 05:29N 46°06' W 122°57'0 0.0
2017-Sep-20 04:59N 46°06' W 122°57'0 0.0
2017-Sep-20 04:26N 46°06' W 122°57'0 0.0
2017-Sep-20 03:59N 46°06' W 122°57'0 0.0
2017-Sep-20 03:29N 46°06' W 122°57'0 0.0
2017-Sep-20 02:59N 46°06' W 122°57'0 0.0
2017-Sep-20 02:26N 46°06' W 122°57'0 0.0
2017-Sep-20 01:59N 46°06' W 122°57'0 0.0
2017-Sep-20 01:29N 46°06' W 122°57'0 0.0
2017-Sep-20 00:59N 46°06' W 122°57'0 0.0
2017-Sep-20 00:26N 46°06' W 122°57'0 0.0
2017-Sep-19 23:59N 46°06' W 122°57'0 0.0
2017-Sep-19 23:29N 46°06' W 122°57'0 0.0
2017-Sep-19 22:59N 46°06' W 122°57'0 0.0
2017-Sep-19 22:26N 46°06' W 122°57'0 0.0
2017-Sep-19 21:59N 46°06' W 122°57'0 0.0
2017-Sep-19 21:29N 46°06' W 122°57'0 0.0
2017-Sep-19 20:59N 46°06' W 122°57'0 0.0
2017-Sep-19 20:29N 46°06' W 122°57'0 0.0
2017-Sep-19 19:56N 46°06' W 122°57'0 0.0
2017-Sep-19 19:29N 46°06' W 122°57'0 0.0
2017-Sep-19 18:56N 46°06' W 122°57'0 0.0
2017-Sep-19 18:26N 46°06' W 122°57'0 0.0
2017-Sep-19 17:59N 46°06' W 122°57'0 0.0
2017-Sep-19 17:20N 46°06' W 122°57'0 0.0
2017-Sep-19 16:59N 46°06' W 122°57'0 0.0
2017-Sep-19 16:29N 46°06' W 122°57'0 0.0
2017-Sep-19 15:56N 46°06' W 122°57'0 0.0
2017-Sep-19 15:26N 46°06' W 122°57'0 0.0
2017-Sep-19 14:56N 46°06' W 122°57'0 0.0
2017-Sep-19 14:29N 46°06' W 122°57'0 0.0
2017-Sep-19 13:59N 46°06' W 122°57'  
Track history (hours):
 
Tides and Currents Weather Stations Pressure Air Temp Water Temp Dewpoint Dewpoint Depression Visibility Wind Speed Wind Dir Waves Ship Positions

Berge Hallasan

Last reported at 2017-Sep-28 09:19 UTC. Time now 2017-Oct-18 16:59 UTC.
Position N 46°12' W 125°33'.
Warning: this ship's position is 20 days out of date.

Length 183 m; draft 8.9 m.

Type: Cargo ship. MMSI: 374922000.

Date/timePositionNaut miles runAvg speedWind from/ knotsBaromVisibWave heightAir tempDewpointWater temp
2017-Sep-28 09:19N 46°12' W 125°33'412.5
2017-Sep-28 09:00N 46°12' W 125°27'612.4
2017-Sep-28 08:30N 46°12' W 125°18'612.4
2017-Sep-28 08:00N 46°12' W 125°09'612.2
2017-Sep-28 07:29N 46°12' W 125°00'612.1
2017-Sep-28 07:00N 46°12' W 124°52'611.6
2017-Sep-28 06:30N 46°12' W 124°43'611.8
2017-Sep-28 06:00N 46°11' W 124°35'612.1
2017-Sep-28 05:30N 46°10' W 124°26'612.5
2017-Sep-28 05:00N 46°09' W 124°17'4 7.7
2017-Sep-28 04:27N 46°11' W 124°12'511.6
2017-Sep-28 04:00N 46°15' W 124°06'611.6
2017-Sep-28 03:31N 46°13' W 123°58'510.0
2017-Sep-28 03:00N 46°12' W 123°51'4 8.3
2017-Sep-28 02:29N 46°13' W 123°45'611.8
2017-Sep-28 02:01N 46°16' W 123°38'611.7
2017-Sep-28 01:31N 46°16' W 123°30'5 9.7
2017-Sep-28 01:01N 46°12' W 123°26'5 9.3
2017-Sep-28 00:30N 46°09' W 123°22'612.4
2017-Sep-28 00:00N 46°10' W 123°13'612.0
2017-Sep-27 23:31N 46°10' W 123°04'611.5
2017-Sep-27 23:01N 46°06' W 122°58'1 1.2
2017-Sep-27 22:29N 46°06' W 122°57'0 0.0
2017-Sep-27 21:59N 46°06' W 122°57'0 0.0
2017-Sep-27 21:29N 46°06' W 122°57'0 0.0
2017-Sep-27 20:59N 46°06' W 122°57'0 0.0
2017-Sep-27 20:26N 46°06' W 122°57'0 0.0
2017-Sep-27 19:59N 46°06' W 122°57'0 0.0
2017-Sep-27 19:29N 46°06' W 122°57'0 0.0
2017-Sep-27 18:44N 46°06' W 122°57'0 0.0
2017-Sep-27 18:29N 46°06' W 122°57'0 0.0
2017-Sep-27 17:59N 46°06' W 122°57'0 0.0
2017-Sep-27 17:26N 46°06' W 122°57'0 0.0
2017-Sep-27 16:59N 46°06' W 122°57'0 0.0
2017-Sep-27 16:29N 46°06' W 122°57'0 0.0
2017-Sep-27 15:44N 46°06' W 122°57'0 0.0
2017-Sep-27 15:29N 46°06' W 122°57'0 0.0
2017-Sep-27 14:53N 46°06' W 122°57'0 0.0
2017-Sep-27 14:26N 46°06' W 122°57'0 0.0
2017-Sep-27 13:59N 46°06' W 122°57'0 0.0
2017-Sep-27 13:29N 46°06' W 122°57'0 0.0
2017-Sep-27 12:59N 46°06' W 122°57'0 0.0
2017-Sep-27 12:29N 46°06' W 122°57'0 0.0
2017-Sep-27 11:59N 46°06' W 122°57'0 0.0
2017-Sep-27 11:26N 46°06' W 122°57'0 0.0
2017-Sep-27 10:59N 46°06' W 122°57'0 0.0
2017-Sep-27 10:29N 46°06' W 122°57'0 0.0
2017-Sep-27 09:47N 46°06' W 122°57'0 0.0
2017-Sep-27 09:29N 46°06' W 122°57'0 0.0
2017-Sep-27 08:59N 46°06' W 122°57'0 0.0
2017-Sep-27 08:29N 46°06' W 122°57'0 0.0
2017-Sep-27 07:59N 46°06' W 122°57'0 0.0
2017-Sep-27 07:29N 46°06' W 122°57'0 0.0
2017-Sep-27 06:41N 46°06' W 122°57'0 0.0
2017-Sep-27 06:29N 46°06' W 122°57'0 0.0
2017-Sep-27 05:59N 46°06' W 122°57'0 0.0
2017-Sep-27 05:26N 46°06' W 122°57'0 0.0
2017-Sep-27 04:56N 46°06' W 122°57'0 0.0
2017-Sep-27 04:26N 46°06' W 122°57'0 0.0
2017-Sep-27 03:50N 46°06' W 122°57'0 0.0
2017-Sep-27 03:26N 46°06' W 122°57'0 0.0
2017-Sep-27 02:56N 46°06' W 122°57'0 0.0
2017-Sep-27 02:29N 46°06' W 122°57'0 0.0
2017-Sep-27 01:59N 46°06' W 122°57'0 0.0
2017-Sep-27 01:29N 46°06' W 122°57'0 0.0
2017-Sep-27 00:47N 46°06' W 122°57'0 0.0
2017-Sep-27 00:20N 46°06' W 122°57'0 0.0
2017-Sep-26 23:53N 46°06' W 122°57'0 0.0
2017-Sep-26 23:26N 46°06' W 122°57'0 0.0
2017-Sep-26 22:47N 46°06' W 122°57'0 0.0
2017-Sep-26 22:29N 46°06' W 122°57'0 0.0
2017-Sep-26 21:53N 46°06' W 122°57'0 0.0
2017-Sep-26 21:29N 46°06' W 122°57'0 0.0
2017-Sep-26 20:59N 46°06' W 122°57'0 0.0
2017-Sep-26 20:29N 46°06' W 122°57'0 0.0
2017-Sep-26 19:35N 46°06' W 122°57'0 0.0
2017-Sep-26 19:29N 46°06' W 122°57'0 0.0
2017-Sep-26 18:56N 46°06' W 122°57'0 0.0
2017-Sep-26 18:26N 46°06' W 122°57'0 0.0
2017-Sep-26 17:59N 46°06' W 122°57'0 0.0
2017-Sep-26 17:29N 46°06' W 122°57'0 0.0
2017-Sep-26 16:59N 46°06' W 122°57'0 0.0
2017-Sep-26 16:29N 46°06' W 122°57'0 0.0
2017-Sep-26 15:59N 46°06' W 122°57'0 0.0
2017-Sep-26 15:26N 46°06' W 122°57'0 0.0
2017-Sep-26 14:56N 46°06' W 122°57'0 0.0
2017-Sep-26 14:29N 46°06' W 122°57'0 0.0
2017-Sep-26 13:44N 46°06' W 122°57'0 0.0
2017-Sep-26 13:29N 46°06' W 122°57'0 0.0
2017-Sep-26 12:56N 46°06' W 122°57'0 0.0
2017-Sep-26 12:29N 46°06' W 122°57'0 0.0
2017-Sep-26 11:59N 46°06' W 122°57'0 0.0
2017-Sep-26 11:29N 46°06' W 122°57'0 0.0
2017-Sep-26 10:59N 46°06' W 122°57'0 0.0
2017-Sep-26 10:29N 46°06' W 122°57'0 0.0
2017-Sep-26 09:53N 46°06' W 122°57'0 0.0
2017-Sep-26 09:29N 46°06' W 122°57'0 0.0
2017-Sep-26 08:59N 46°06' W 122°57'0 0.0
2017-Sep-26 08:29N 46°06' W 122°57'0 0.0
2017-Sep-26 07:59N 46°06' W 122°57'0 0.0
2017-Sep-26 07:23N 46°06' W 122°57'0 0.0
2017-Sep-26 06:59N 46°06' W 122°57'0 0.0
2017-Sep-26 06:29N 46°06' W 122°57'0 0.0
2017-Sep-26 05:56N 46°06' W 122°57'0 0.0
2017-Sep-26 05:23N 46°06' W 122°57'0 0.0
2017-Sep-26 04:08N 46°06' W 122°57'0 0.0
2017-Sep-26 03:59N 46°06' W 122°57'0 0.0
2017-Sep-26 03:29N 46°06' W 122°57'0 0.0
2017-Sep-26 02:59N 46°06' W 122°57'0 0.0
2017-Sep-26 02:26N 46°06' W 122°57'0 0.0
2017-Sep-26 01:56N 46°06' W 122°57'0 0.0
2017-Sep-26 01:26N 46°06' W 122°57'0 0.0
2017-Sep-26 00:53N 46°06' W 122°57'0 0.0
2017-Sep-26 00:29N 46°06' W 122°57'0 0.0
2017-Sep-25 23:59N 46°06' W 122°57'0 0.0
2017-Sep-25 23:05N 46°06' W 122°57'0 0.0
2017-Sep-25 22:59N 46°06' W 122°57'0 0.0
2017-Sep-25 22:29N 46°06' W 122°57'0 0.0
2017-Sep-25 21:59N 46°06' W 122°57'0 0.0
2017-Sep-25 21:29N 46°06' W 122°57'0 0.0
2017-Sep-25 20:50N 46°06' W 122°57'0 0.0
2017-Sep-25 20:29N 46°06' W 122°57'0 0.0
2017-Sep-25 19:50N 46°06' W 122°57'0 0.0
2017-Sep-25 19:29N 46°06' W 122°57'0 0.0
2017-Sep-25 18:53N 46°06' W 122°57'0 0.0
2017-Sep-25 18:23N 46°06' W 122°57'0 0.0
2017-Sep-25 17:56N 46°06' W 122°57'0 0.0
2017-Sep-25 17:29N 46°06' W 122°57'0 0.0
2017-Sep-25 16:56N 46°06' W 122°57'0 0.0
2017-Sep-25 16:26N 46°06' W 122°57'0 0.0
2017-Sep-25 15:56N 46°06' W 122°57'0 0.0
2017-Sep-25 15:29N 46°06' W 122°57'0 0.0
2017-Sep-25 14:56N 46°06' W 122°57'0 0.0
2017-Sep-25 14:20N 46°06' W 122°57'0 0.0
2017-Sep-25 13:59N 46°06' W 122°57'0 0.0
2017-Sep-25 13:23N 46°06' W 122°57'0 0.0
2017-Sep-25 12:59N 46°06' W 122°57'0 0.0
2017-Sep-25 12:23N 46°06' W 122°57'0 0.0
2017-Sep-25 11:59N 46°06' W 122°57'0 0.0
2017-Sep-25 11:29N 46°06' W 122°57'0 0.0
2017-Sep-25 10:59N 46°06' W 122°57'0 0.0
2017-Sep-25 10:02N 46°06' W 122°57'0 0.0
2017-Sep-25 09:53N 46°06' W 122°57'0 0.0
2017-Sep-25 09:26N 46°06' W 122°57'0 0.0
2017-Sep-25 08:56N 46°06' W 122°57'0 0.0
2017-Sep-25 08:14N 46°06' W 122°57'0 0.0
2017-Sep-25 07:59N 46°06' W 122°57'0 0.0
2017-Sep-25 07:29N 46°06' W 122°57'0 0.0
2017-Sep-25 06:59N 46°06' W 122°57'0 0.0
2017-Sep-25 06:29N 46°06' W 122°57'0 0.0
2017-Sep-25 05:59N 46°06' W 122°57'0 0.0
2017-Sep-25 05:26N 46°06' W 122°57'0 0.0
2017-Sep-25 04:59N 46°06' W 122°57'0 0.0
2017-Sep-25 04:29N 46°06' W 122°57'0 0.0
2017-Sep-25 03:38N 46°06' W 122°57'0 0.0
2017-Sep-25 03:26N 46°06' W 122°57'0 0.0
2017-Sep-25 01:59N 46°06' W 122°57'0 0.0
2017-Sep-25 01:26N 46°06' W 122°57'0 0.0
2017-Sep-25 00:59N 46°06' W 122°57'0 0.0
2017-Sep-25 00:29N 46°06' W 122°57'0 0.0
2017-Sep-24 23:56N 46°06' W 122°57'0 0.0
2017-Sep-24 23:26N 46°06' W 122°57'0 0.0
2017-Sep-24 22:59N 46°06' W 122°57'0 0.0
2017-Sep-24 22:26N 46°06' W 122°57'0 0.0
2017-Sep-24 21:59N 46°06' W 122°57'0 0.0
2017-Sep-24 21:29N 46°06' W 122°57'0 0.0
2017-Sep-24 20:56N 46°06' W 122°57'0 0.0
2017-Sep-24 20:29N 46°06' W 122°57'0 0.0
2017-Sep-24 19:56N 46°06' W 122°57'0 0.0
2017-Sep-24 19:23N 46°06' W 122°57'0 0.0
2017-Sep-24 18:59N 46°06' W 122°57'0 0.0
2017-Sep-24 18:29N 46°06' W 122°57'0 0.0
2017-Sep-24 17:59N 46°06' W 122°57'0 0.0
2017-Sep-24 17:29N 46°06' W 122°57'0 0.0
2017-Sep-24 16:59N 46°06' W 122°57'0 0.0
2017-Sep-24 16:14N 46°06' W 122°57'0 0.0
2017-Sep-24 15:59N 46°06' W 122°57'0 0.0
2017-Sep-24 15:29N 46°06' W 122°57'0 0.0
2017-Sep-24 14:59N 46°06' W 122°57'0 0.0
2017-Sep-24 14:29N 46°06' W 122°57'0 0.0
2017-Sep-24 13:59N 46°06' W 122°57'0 0.0
2017-Sep-24 13:26N 46°06' W 122°57'0 0.0
2017-Sep-24 12:50N 46°06' W 122°57'0 0.0
2017-Sep-24 12:17N 46°06' W 122°57'0 0.0
2017-Sep-24 11:59N 46°06' W 122°57'0 0.0
2017-Sep-24 11:29N 46°06' W 122°57'0 0.0
2017-Sep-24 10:59N 46°06' W 122°57'0 0.0
2017-Sep-24 10:29N 46°06' W 122°57'0 0.0
2017-Sep-24 09:59N 46°06' W 122°57'0 0.0
2017-Sep-24 09:26N 46°06' W 122°57'0 0.0
2017-Sep-24 08:59N 46°06' W 122°57'0 0.0
2017-Sep-24 08:29N 46°06' W 122°57'0 0.0
2017-Sep-24 07:56N 46°06' W 122°57'0 0.0
2017-Sep-24 07:29N 46°06' W 122°57'0 0.0
2017-Sep-24 06:59N 46°06' W 122°57'0 0.0
2017-Sep-24 06:29N 46°06' W 122°57'0 0.0
2017-Sep-24 05:59N 46°06' W 122°57'0 0.0
2017-Sep-24 05:29N 46°06' W 122°57'0 0.0
2017-Sep-24 04:56N 46°06' W 122°57'0 0.0
2017-Sep-24 04:29N 46°06' W 122°57'0 0.0
2017-Sep-24 03:59N 46°06' W 122°57'0 0.0
2017-Sep-24 03:29N 46°06' W 122°57'0 0.0
2017-Sep-24 02:59N 46°06' W 122°57'0 0.0
2017-Sep-24 02:29N 46°06' W 122°57'0 0.0
2017-Sep-24 01:47N 46°06' W 122°57'0 0.0
2017-Sep-24 01:29N 46°06' W 122°57'0 0.0
2017-Sep-24 00:59N 46°06' W 122°57'0 0.0
2017-Sep-24 00:29N 46°06' W 122°57'0 0.0
2017-Sep-23 23:59N 46°06' W 122°57'0 0.0
2017-Sep-23 23:29N 46°06' W 122°57'0 0.0
2017-Sep-23 22:56N 46°06' W 122°57'0 0.0
2017-Sep-23 22:26N 46°06' W 122°57'0 0.0
2017-Sep-23 21:56N 46°06' W 122°57'0 0.0
2017-Sep-23 21:29N 46°06' W 122°57'0 0.0
2017-Sep-23 20:29N 46°06' W 122°57'0 0.0
2017-Sep-23 19:59N 46°06' W 122°57'0 0.0
2017-Sep-22 01:59N 46°06' W 122°57'0 0.0
2017-Sep-22 01:29N 46°06' W 122°57'0 0.0
2017-Sep-22 00:56N 46°06' W 122°57'0 0.0
2017-Sep-22 00:29N 46°06' W 122°57'0 0.0
2017-Sep-21 23:53N 46°06' W 122°57'0 0.0
2017-Sep-21 23:29N 46°06' W 122°57'0 0.0
2017-Sep-21 22:59N 46°06' W 122°57'0 0.0
2017-Sep-21 22:29N 46°06' W 122°57'0 0.0
2017-Sep-21 21:59N 46°06' W 122°57'0 0.0
2017-Sep-21 21:17N 46°06' W 122°57'0 0.0
2017-Sep-21 20:59N 46°06' W 122°57'0 0.0
2017-Sep-21 20:29N 46°06' W 122°57'0 0.0
2017-Sep-21 19:59N 46°06' W 122°57'0 0.0
2017-Sep-21 19:26N 46°06' W 122°57'0 0.0
2017-Sep-21 17:59N 46°06' W 122°57'0 0.0
2017-Sep-21 17:26N 46°06' W 122°57'0 0.0
2017-Sep-21 16:59N 46°06' W 122°57'0 0.0
2017-Sep-21 16:29N 46°06' W 122°57'0 0.0
2017-Sep-21 15:56N 46°06' W 122°57'0 0.0
2017-Sep-21 15:26N 46°06' W 122°57'0 0.0
2017-Sep-21 14:59N 46°06' W 122°57'0 0.0
2017-Sep-21 14:29N 46°06' W 122°57'0 0.0
2017-Sep-21 13:59N 46°06' W 122°57'0 0.0
2017-Sep-21 13:26N 46°06' W 122°57'0 0.0
2017-Sep-21 12:59N 46°06' W 122°57'0 0.0
2017-Sep-21 12:26N 46°06' W 122°57'0 0.0
2017-Sep-21 11:56N 46°06' W 122°57'0 0.0
2017-Sep-21 11:29N 46°06' W 122°57'0 0.0
2017-Sep-21 10:59N 46°06' W 122°57'0 0.0
2017-Sep-21 10:20N 46°06' W 122°57'0 0.0
2017-Sep-21 09:59N 46°06' W 122°57'0 0.0
2017-Sep-21 09:29N 46°06' W 122°57'0 0.0
2017-Sep-21 08:56N 46°06' W 122°57'0 0.0
2017-Sep-21 08:29N 46°06' W 122°57'0 0.0
2017-Sep-21 07:56N 46°06' W 122°57'0 0.0
2017-Sep-21 07:29N 46°06' W 122°57'0 0.0
2017-Sep-21 06:59N 46°06' W 122°57'0 0.0
2017-Sep-21 06:26N 46°06' W 122°57'0 0.0
2017-Sep-21 05:59N 46°06' W 122°57'0 0.0
2017-Sep-21 05:29N 46°06' W 122°57'0 0.0
2017-Sep-21 04:56N 46°06' W 122°57'0 0.0
2017-Sep-21 04:29N 46°06' W 122°57'0 0.0
2017-Sep-21 03:56N 46°06' W 122°57'0 0.0
2017-Sep-21 03:26N 46°06' W 122°57'0 0.0
2017-Sep-21 02:59N 46°06' W 122°57'0 0.0
2017-Sep-21 01:32N 46°06' W 122°57'0 0.0
2017-Sep-21 01:29N 46°06' W 122°57'0 0.0
2017-Sep-21 00:59N 46°06' W 122°57'0 0.0
2017-Sep-21 00:29N 46°06' W 122°57'0 0.0
2017-Sep-20 23:59N 46°06' W 122°57'0 0.0
2017-Sep-20 23:26N 46°06' W 122°57'0 0.0
2017-Sep-20 22:59N 46°06' W 122°57'0 0.0
2017-Sep-20 22:29N 46°06' W 122°57'0 0.0
2017-Sep-20 21:56N 46°06' W 122°57'0 0.0
2017-Sep-20 21:26N 46°06' W 122°57'0 0.0
2017-Sep-20 20:59N 46°06' W 122°57'0 0.0
2017-Sep-20 20:26N 46°06' W 122°57'0 0.0
2017-Sep-20 19:59N 46°06' W 122°57'0 0.0
2017-Sep-20 19:29N 46°06' W 122°57'0 0.0
2017-Sep-20 18:56N 46°06' W 122°57'0 0.0
2017-Sep-20 18:29N 46°06' W 122°57'0 0.0
2017-Sep-20 17:59N 46°06' W 122°57'0 0.0
2017-Sep-20 17:29N 46°06' W 122°57'0 0.0
2017-Sep-20 16:59N 46°06' W 122°57'0 0.0
2017-Sep-20 16:29N 46°06' W 122°57'0 0.0
2017-Sep-20 15:59N 46°06' W 122°57'0 0.0
2017-Sep-20 15:26N 46°06' W 122°57'0 0.0
2017-Sep-20 14:59N 46°06' W 122°57'0 0.0
2017-Sep-20 13:56N 46°06' W 122°57'0 0.0
2017-Sep-20 13:29N 46°06' W 122°57'0 0.0
2017-Sep-20 12:53N 46°06' W 122°57'0 0.0
2017-Sep-20 12:29N 46°06' W 122°57'0 0.0
2017-Sep-20 11:59N 46°06' W 122°57'0 0.0
2017-Sep-20 11:29N 46°06' W 122°57'0 0.0
2017-Sep-20 10:59N 46°06' W 122°57'0 0.0
2017-Sep-20 10:29N 46°06' W 122°57'0 0.0
2017-Sep-20 09:59N 46°06' W 122°57'0 0.0
2017-Sep-20 09:29N 46°06' W 122°57'0 0.0
2017-Sep-20 08:59N 46°06' W 122°57'0 0.0
2017-Sep-20 08:29N 46°06' W 122°57'0 0.0
2017-Sep-20 07:53N 46°06' W 122°57'0 0.0
2017-Sep-20 07:29N 46°06' W 122°57'0 0.0
2017-Sep-20 06:56N 46°06' W 122°57'0 0.0
2017-Sep-20 06:29N 46°06' W 122°57'0 0.0
2017-Sep-20 05:59N 46°06' W 122°57'0 0.0
2017-Sep-20 05:29N 46°06' W 122°57'0 0.0
2017-Sep-20 04:59N 46°06' W 122°57'0 0.0
2017-Sep-20 04:26N 46°06' W 122°57'0 0.0
2017-Sep-20 03:59N 46°06' W 122°57'0 0.0
2017-Sep-20 03:29N 46°06' W 122°57'0 0.0
2017-Sep-20 02:59N 46°06' W 122°57'0 0.0
2017-Sep-20 02:26N 46°06' W 122°57'0 0.0
2017-Sep-20 01:59N 46°06' W 122°57'0 0.0
2017-Sep-20 01:29N 46°06' W 122°57'0 0.0
2017-Sep-20 00:59N 46°06' W 122°57'0 0.0
2017-Sep-20 00:26N 46°06' W 122°57'0 0.0
2017-Sep-19 23:59N 46°06' W 122°57'0 0.0
2017-Sep-19 23:29N 46°06' W 122°57'0 0.0
2017-Sep-19 22:59N 46°06' W 122°57'0 0.0
2017-Sep-19 22:26N 46°06' W 122°57'0 0.0
2017-Sep-19 21:59N 46°06' W 122°57'0 0.0
2017-Sep-19 21:29N 46°06' W 122°57'0 0.0
2017-Sep-19 20:59N 46°06' W 122°57'0 0.0
2017-Sep-19 20:29N 46°06' W 122°57'0 0.0
2017-Sep-19 19:56N 46°06' W 122°57'0 0.0
2017-Sep-19 19:29N 46°06' W 122°57'0 0.0
2017-Sep-19 18:56N 46°06' W 122°57'0 0.0
2017-Sep-19 18:26N 46°06' W 122°57'0 0.0
2017-Sep-19 17:59N 46°06' W 122°57'0 0.0
2017-Sep-19 17:20N 46°06' W 122°57'0 0.0
2017-Sep-19 16:59N 46°06' W 122°57'0 0.0
2017-Sep-19 16:29N 46°06' W 122°57'0 0.0
2017-Sep-19 15:56N 46°06' W 122°57'0 0.0
2017-Sep-19 15:26N 46°06' W 122°57'0 0.0
2017-Sep-19 14:56N 46°06' W 122°57'0 0.0
2017-Sep-19 14:29N 46°06' W 122°57'0 0.0
2017-Sep-19 13:59N 46°06' W 122°57'  

Dump ship's entire track history